sensor_id;sensor_type;location;lat;lon;timestamp;P1;durP1;ratioP1;P2;durP2;ratioP2
16442;SDS011;8331;51.654;14.376;2022-12-24T00:00:56;7.80;;;6.67;;
16442;SDS011;8331;51.654;14.376;2022-12-24T00:03:23;6.70;;;6.00;;
16442;SDS011;8331;51.654;14.376;2022-12-24T00:05:50;7.03;;;6.30;;
16442;SDS011;8331;51.654;14.376;2022-12-24T00:08:18;7.67;;;6.87;;
16442;SDS011;8331;51.654;14.376;2022-12-24T00:10:48;7.27;;;6.57;;
16442;SDS011;8331;51.654;14.376;2022-12-24T00:13:15;6.60;;;5.90;;
16442;SDS011;8331;51.654;14.376;2022-12-24T00:15:41;10.27;;;7.73;;
16442;SDS011;8331;51.654;14.376;2022-12-24T00:18:08;9.70;;;7.93;;
16442;SDS011;8331;51.654;14.376;2022-12-24T00:20:35;8.57;;;7.57;;
16442;SDS011;8331;51.654;14.376;2022-12-24T00:23:02;8.13;;;7.33;;
16442;SDS011;8331;51.654;14.376;2022-12-24T00:25:28;7.07;;;6.47;;
16442;SDS011;8331;51.654;14.376;2022-12-24T00:27:55;8.70;;;7.80;;
16442;SDS011;8331;51.654;14.376;2022-12-24T00:30:21;8.27;;;7.37;;
16442;SDS011;8331;51.654;14.376;2022-12-24T00:32:48;7.93;;;7.17;;
16442;SDS011;8331;51.654;14.376;2022-12-24T00:35:15;8.57;;;7.47;;
16442;SDS011;8331;51.654;14.376;2022-12-24T00:37:41;10.27;;;8.30;;
16442;SDS011;8331;51.654;14.376;2022-12-24T00:40:08;10.77;;;7.77;;
16442;SDS011;8331;51.654;14.376;2022-12-24T00:42:34;11.63;;;8.70;;
16442;SDS011;8331;51.654;14.376;2022-12-24T00:45:01;10.17;;;8.63;;
16442;SDS011;8331;51.654;14.376;2022-12-24T00:47:28;11.80;;;8.50;;
16442;SDS011;8331;51.654;14.376;2022-12-24T00:49:54;16.23;;;11.70;;
16442;SDS011;8331;51.654;14.376;2022-12-24T00:52:21;19.60;;;12.23;;
16442;SDS011;8331;51.654;14.376;2022-12-24T00:54:48;14.37;;;9.67;;
16442;SDS011;8331;51.654;14.376;2022-12-24T00:57:14;12.90;;;10.10;;
16442;SDS011;8331;51.654;14.376;2022-12-24T00:59:41;11.67;;;10.20;;
16442;SDS011;8331;51.654;14.376;2022-12-24T01:02:07;12.23;;;10.27;;
16442;SDS011;8331;51.654;14.376;2022-12-24T01:04:34;11.57;;;10.10;;
16442;SDS011;8331;51.654;14.376;2022-12-24T01:07:20;14.10;;;11.37;;
16442;SDS011;8331;51.654;14.376;2022-12-24T01:09:46;22.90;;;13.13;;
16442;SDS011;8331;51.654;14.376;2022-12-24T01:12:13;16.33;;;11.83;;
16442;SDS011;8331;51.654;14.376;2022-12-24T01:14:40;13.50;;;10.60;;
16442;SDS011;8331;51.654;14.376;2022-12-24T01:17:07;12.07;;;10.77;;
16442;SDS011;8331;51.654;14.376;2022-12-24T01:19:34;15.33;;;12.33;;
16442;SDS011;8331;51.654;14.376;2022-12-24T01:22:00;13.80;;;10.80;;
16442;SDS011;8331;51.654;14.376;2022-12-24T01:24:27;11.40;;;10.20;;
16442;SDS011;8331;51.654;14.376;2022-12-24T01:26:54;14.40;;;11.50;;
16442;SDS011;8331;51.654;14.376;2022-12-24T01:29:21;11.40;;;10.23;;
16442;SDS011;8331;51.654;14.376;2022-12-24T01:31:48;11.60;;;8.83;;
16442;SDS011;8331;51.654;14.376;2022-12-24T01:34:14;11.60;;;8.77;;
16442;SDS011;8331;51.654;14.376;2022-12-24T01:36:41;12.03;;;8.13;;
16442;SDS011;8331;51.654;14.376;2022-12-24T01:39:07;13.17;;;9.53;;
16442;SDS011;8331;51.654;14.376;2022-12-24T01:41:34;17.13;;;9.20;;
16442;SDS011;8331;51.654;14.376;2022-12-24T01:46:47;13.13;;;9.17;;
16442;SDS011;8331;51.654;14.376;2022-12-24T01:49:14;10.70;;;8.40;;
16442;SDS011;8331;51.654;14.376;2022-12-24T01:51:51;10.37;;;8.20;;
16442;SDS011;8331;51.654;14.376;2022-12-24T01:56:50;10.40;;;8.37;;
16442;SDS011;8331;51.654;14.376;2022-12-24T01:59:18;11.23;;;8.70;;
16442;SDS011;8331;51.654;14.376;2022-12-24T02:01:46;11.30;;;7.97;;
16442;SDS011;8331;51.654;14.376;2022-12-24T02:04:32;11.07;;;8.43;;
16442;SDS011;8331;51.654;14.376;2022-12-24T02:06:59;11.50;;;8.67;;
16442;SDS011;8331;51.654;14.376;2022-12-24T02:09:26;11.73;;;8.90;;
16442;SDS011;8331;51.654;14.376;2022-12-24T02:11:52;12.00;;;8.57;;
16442;SDS011;8331;51.654;14.376;2022-12-24T02:14:19;13.27;;;8.80;;
16442;SDS011;8331;51.654;14.376;2022-12-24T02:19:30;9.70;;;7.93;;
16442;SDS011;8331;51.654;14.376;2022-12-24T02:22:25;8.97;;;8.07;;
16442;SDS011;8331;51.654;14.376;2022-12-24T02:30:14;10.67;;;8.10;;
16442;SDS011;8331;51.654;14.376;2022-12-24T02:38:23;6.30;;;5.80;;
16442;SDS011;8331;51.654;14.376;2022-12-24T02:40:55;7.20;;;6.50;;
16442;SDS011;8331;51.654;14.376;2022-12-24T02:43:23;7.03;;;6.33;;
16442;SDS011;8331;51.654;14.376;2022-12-24T02:45:56;8.53;;;5.93;;
16442;SDS011;8331;51.654;14.376;2022-12-24T02:48:25;6.70;;;6.03;;
16442;SDS011;8331;51.654;14.376;2022-12-24T02:50:56;8.20;;;6.10;;
16442;SDS011;8331;51.654;14.376;2022-12-24T02:53:22;6.13;;;5.63;;
16442;SDS011;8331;51.654;14.376;2022-12-24T03:03:33;4.10;;;3.70;;
16442;SDS011;8331;51.654;14.376;2022-12-24T03:06:11;5.27;;;4.40;;
16442;SDS011;8331;51.654;14.376;2022-12-24T03:11:14;7.37;;;4.30;;
16442;SDS011;8331;51.654;14.376;2022-12-24T03:13:41;6.40;;;4.27;;
16442;SDS011;8331;51.654;14.376;2022-12-24T03:16:12;7.27;;;4.20;;
16442;SDS011;8331;51.654;14.376;2022-12-24T03:18:41;7.63;;;4.80;;
16442;SDS011;8331;51.654;14.376;2022-12-24T03:21:20;6.23;;;4.97;;
16442;SDS011;8331;51.654;14.376;2022-12-24T03:23:47;5.30;;;4.80;;
16442;SDS011;8331;51.654;14.376;2022-12-24T03:26:15;5.47;;;4.70;;
16442;SDS011;8331;51.654;14.376;2022-12-24T03:28:43;4.87;;;4.50;;
16442;SDS011;8331;51.654;14.376;2022-12-24T03:31:10;4.77;;;4.27;;
16442;SDS011;8331;51.654;14.376;2022-12-24T03:33:37;4.93;;;4.53;;
16442;SDS011;8331;51.654;14.376;2022-12-24T03:36:04;4.73;;;4.33;;
16442;SDS011;8331;51.654;14.376;2022-12-24T03:38:32;6.93;;;5.07;;
16442;SDS011;8331;51.654;14.376;2022-12-24T03:40:58;4.87;;;4.30;;
16442;SDS011;8331;51.654;14.376;2022-12-24T03:43:25;4.53;;;4.13;;
16442;SDS011;8331;51.654;14.376;2022-12-24T03:45:52;5.10;;;4.60;;
16442;SDS011;8331;51.654;14.376;2022-12-24T03:48:18;5.77;;;5.17;;
16442;SDS011;8331;51.654;14.376;2022-12-24T03:50:45;5.23;;;4.83;;
16442;SDS011;8331;51.654;14.376;2022-12-24T03:53:11;6.53;;;4.80;;
16442;SDS011;8331;51.654;14.376;2022-12-24T03:55:38;5.30;;;4.83;;
16442;SDS011;8331;51.654;14.376;2022-12-24T03:58:05;5.00;;;4.60;;
16442;SDS011;8331;51.654;14.376;2022-12-24T04:00:31;5.80;;;5.00;;
16442;SDS011;8331;51.654;14.376;2022-12-24T04:02:58;5.67;;;4.73;;
16442;SDS011;8331;51.654;14.376;2022-12-24T04:05:25;5.20;;;4.70;;
16442;SDS011;8331;51.654;14.376;2022-12-24T04:07:51;5.17;;;4.57;;
16442;SDS011;8331;51.654;14.376;2022-12-24T04:10:18;5.13;;;4.73;;
16442;SDS011;8331;51.654;14.376;2022-12-24T04:12:45;5.37;;;4.93;;
16442;SDS011;8331;51.654;14.376;2022-12-24T04:15:11;4.87;;;4.47;;
16442;SDS011;8331;51.654;14.376;2022-12-24T04:17:38;7.67;;;4.67;;
16442;SDS011;8331;51.654;14.376;2022-12-24T04:20:05;5.70;;;5.13;;
16442;SDS011;8331;51.654;14.376;2022-12-24T04:22:31;5.80;;;5.30;;
16442;SDS011;8331;51.654;14.376;2022-12-24T04:24:58;6.30;;;5.70;;
16442;SDS011;8331;51.654;14.376;2022-12-24T04:27:25;7.30;;;6.17;;
16442;SDS011;8331;51.654;14.376;2022-12-24T04:29:56;6.73;;;6.03;;
16442;SDS011;8331;51.654;14.376;2022-12-24T04:32:24;6.87;;;6.37;;
16442;SDS011;8331;51.654;14.376;2022-12-24T04:34:50;7.37;;;6.77;;
16442;SDS011;8331;51.654;14.376;2022-12-24T04:37:17;7.00;;;6.40;;
16442;SDS011;8331;51.654;14.376;2022-12-24T04:39:44;7.30;;;6.70;;
16442;SDS011;8331;51.654;14.376;2022-12-24T04:42:10;9.47;;;6.73;;
16442;SDS011;8331;51.654;14.376;2022-12-24T04:44:37;7.70;;;7.00;;
16442;SDS011;8331;51.654;14.376;2022-12-24T04:47:03;8.33;;;7.63;;
16442;SDS011;8331;51.654;14.376;2022-12-24T04:49:30;7.70;;;7.13;;
16442;SDS011;8331;51.654;14.376;2022-12-24T04:51:56;7.93;;;7.23;;
16442;SDS011;8331;51.654;14.376;2022-12-24T04:54:23;7.80;;;7.10;;
16442;SDS011;8331;51.654;14.376;2022-12-24T04:56:50;7.17;;;6.60;;
16442;SDS011;8331;51.654;14.376;2022-12-24T04:59:17;8.87;;;7.80;;
16442;SDS011;8331;51.654;14.376;2022-12-24T05:01:43;8.13;;;7.43;;
16442;SDS011;8331;51.654;14.376;2022-12-24T05:04:10;9.93;;;9.03;;
16442;SDS011;8331;51.654;14.376;2022-12-24T05:06:37;11.27;;;10.17;;
16442;SDS011;8331;51.654;14.376;2022-12-24T05:09:04;11.67;;;10.47;;
16442;SDS011;8331;51.654;14.376;2022-12-24T05:11:30;9.80;;;8.97;;
16442;SDS011;8331;51.654;14.376;2022-12-24T05:13:57;10.83;;;9.77;;
16442;SDS011;8331;51.654;14.376;2022-12-24T05:16:23;12.83;;;11.40;;
16442;SDS011;8331;51.654;14.376;2022-12-24T05:18:50;11.37;;;10.30;;
16442;SDS011;8331;51.654;14.376;2022-12-24T05:21:18;13.23;;;11.90;;
16442;SDS011;8331;51.654;14.376;2022-12-24T05:23:46;13.83;;;12.43;;
16442;SDS011;8331;51.654;14.376;2022-12-24T05:29:01;13.17;;;11.87;;
16442;SDS011;8331;51.654;14.376;2022-12-24T05:31:29;13.40;;;11.97;;
16442;SDS011;8331;51.654;14.376;2022-12-24T05:33:56;14.07;;;12.13;;
16442;SDS011;8331;51.654;14.376;2022-12-24T05:36:22;13.50;;;12.20;;
16442;SDS011;8331;51.654;14.376;2022-12-24T05:38:49;12.43;;;11.20;;
16442;SDS011;8331;51.654;14.376;2022-12-24T05:41:16;12.80;;;11.47;;
16442;SDS011;8331;51.654;14.376;2022-12-24T05:43:42;12.40;;;11.20;;
16442;SDS011;8331;51.654;14.376;2022-12-24T05:46:10;12.73;;;11.43;;
16442;SDS011;8331;51.654;14.376;2022-12-24T05:48:37;12.50;;;11.30;;
16442;SDS011;8331;51.654;14.376;2022-12-24T05:51:05;12.53;;;11.33;;
16442;SDS011;8331;51.654;14.376;2022-12-24T05:53:32;11.80;;;10.50;;
16442;SDS011;8331;51.654;14.376;2022-12-24T05:56:11;12.80;;;10.87;;
16442;SDS011;8331;51.654;14.376;2022-12-24T05:58:38;11.30;;;10.07;;
16442;SDS011;8331;51.654;14.376;2022-12-24T06:01:05;10.50;;;9.50;;
16442;SDS011;8331;51.654;14.376;2022-12-24T06:03:32;10.43;;;9.43;;
16442;SDS011;8331;51.654;14.376;2022-12-24T06:06:03;10.20;;;9.20;;
16442;SDS011;8331;51.654;14.376;2022-12-24T06:08:31;10.90;;;9.80;;
16442;SDS011;8331;51.654;14.376;2022-12-24T06:10:58;10.63;;;9.53;;
16442;SDS011;8331;51.654;14.376;2022-12-24T06:13:25;10.00;;;9.00;;
16442;SDS011;8331;51.654;14.376;2022-12-24T06:15:55;9.83;;;8.93;;
16442;SDS011;8331;51.654;14.376;2022-12-24T06:18:22;10.43;;;9.33;;
16442;SDS011;8331;51.654;14.376;2022-12-24T06:20:53;10.10;;;9.20;;
16442;SDS011;8331;51.654;14.376;2022-12-24T06:23:20;9.20;;;8.30;;
16442;SDS011;8331;51.654;14.376;2022-12-24T06:25:47;10.67;;;9.50;;
16442;SDS011;8331;51.654;14.376;2022-12-24T06:28:13;9.23;;;8.43;;
16442;SDS011;8331;51.654;14.376;2022-12-24T06:30:40;8.20;;;7.50;;
16442;SDS011;8331;51.654;14.376;2022-12-24T06:33:08;8.70;;;7.90;;
16442;SDS011;8331;51.654;14.376;2022-12-24T06:35:34;8.67;;;7.97;;
16442;SDS011;8331;51.654;14.376;2022-12-24T06:38:01;9.20;;;8.40;;
16442;SDS011;8331;51.654;14.376;2022-12-24T06:40:28;8.33;;;7.53;;
16442;SDS011;8331;51.654;14.376;2022-12-24T06:42:54;8.23;;;7.50;;
16442;SDS011;8331;51.654;14.376;2022-12-24T06:45:21;7.63;;;6.93;;
16442;SDS011;8331;51.654;14.376;2022-12-24T06:47:47;6.83;;;6.23;;
16442;SDS011;8331;51.654;14.376;2022-12-24T06:50:14;6.00;;;5.50;;
16442;SDS011;8331;51.654;14.376;2022-12-24T06:52:41;5.80;;;5.20;;
16442;SDS011;8331;51.654;14.376;2022-12-24T06:55:08;5.20;;;4.70;;
16442;SDS011;8331;51.654;14.376;2022-12-24T06:57:34;4.70;;;4.30;;
16442;SDS011;8331;51.654;14.376;2022-12-24T07:00:01;4.60;;;4.30;;
16442;SDS011;8331;51.654;14.376;2022-12-24T07:02:28;4.90;;;4.50;;
16442;SDS011;8331;51.654;14.376;2022-12-24T07:04:55;4.47;;;4.17;;
16442;SDS011;8331;51.654;14.376;2022-12-24T07:07:21;4.20;;;3.90;;
16442;SDS011;8331;51.654;14.376;2022-12-24T07:09:48;4.60;;;4.20;;
16442;SDS011;8331;51.654;14.376;2022-12-24T07:12:14;4.47;;;4.17;;
16442;SDS011;8331;51.654;14.376;2022-12-24T07:14:41;5.07;;;3.70;;
16442;SDS011;8331;51.654;14.376;2022-12-24T07:17:07;3.77;;;3.47;;
16442;SDS011;8331;51.654;14.376;2022-12-24T07:19:34;4.40;;;4.00;;
16442;SDS011;8331;51.654;14.376;2022-12-24T07:22:01;4.27;;;3.97;;
16442;SDS011;8331;51.654;14.376;2022-12-24T07:24:28;4.17;;;3.87;;
16442;SDS011;8331;51.654;14.376;2022-12-24T07:26:54;4.00;;;3.70;;
16442;SDS011;8331;51.654;14.376;2022-12-24T07:29:21;4.17;;;3.87;;
16442;SDS011;8331;51.654;14.376;2022-12-24T07:31:47;3.83;;;3.53;;
16442;SDS011;8331;51.654;14.376;2022-12-24T07:34:14;4.87;;;4.47;;
16442;SDS011;8331;51.654;14.376;2022-12-24T07:36:41;4.70;;;4.30;;
16442;SDS011;8331;51.654;14.376;2022-12-24T07:39:07;4.60;;;4.10;;
16442;SDS011;8331;51.654;14.376;2022-12-24T07:41:34;5.17;;;4.73;;
16442;SDS011;8331;51.654;14.376;2022-12-24T07:44:07;4.80;;;4.40;;
16442;SDS011;8331;51.654;14.376;2022-12-24T07:46:34;4.87;;;4.37;;
16442;SDS011;8331;51.654;14.376;2022-12-24T07:49:00;5.07;;;4.67;;
16442;SDS011;8331;51.654;14.376;2022-12-24T07:51:27;5.27;;;4.87;;
16442;SDS011;8331;51.654;14.376;2022-12-24T07:53:54;6.57;;;5.90;;
16442;SDS011;8331;51.654;14.376;2022-12-24T07:56:20;5.13;;;4.73;;
16442;SDS011;8331;51.654;14.376;2022-12-24T07:58:48;5.80;;;5.20;;
16442;SDS011;8331;51.654;14.376;2022-12-24T08:01:15;5.93;;;5.43;;
16442;SDS011;8331;51.654;14.376;2022-12-24T08:03:42;5.37;;;4.87;;
16442;SDS011;8331;51.654;14.376;2022-12-24T08:06:09;5.77;;;5.27;;
16442;SDS011;8331;51.654;14.376;2022-12-24T08:08:36;5.50;;;5.00;;
16442;SDS011;8331;51.654;14.376;2022-12-24T08:11:04;5.17;;;4.67;;
16442;SDS011;8331;51.654;14.376;2022-12-24T08:13:31;5.63;;;5.07;;
16442;SDS011;8331;51.654;14.376;2022-12-24T08:15:58;4.70;;;4.40;;
16442;SDS011;8331;51.654;14.376;2022-12-24T08:18:25;4.03;;;3.63;;
16442;SDS011;8331;51.654;14.376;2022-12-24T08:20:52;5.93;;;3.50;;
16442;SDS011;8331;51.654;14.376;2022-12-24T08:23:18;3.77;;;2.93;;
16442;SDS011;8331;51.654;14.376;2022-12-24T08:25:45;5.53;;;3.57;;
16442;SDS011;8331;51.654;14.376;2022-12-24T08:28:13;5.53;;;3.57;;
16442;SDS011;8331;51.654;14.376;2022-12-24T08:30:40;4.37;;;2.77;;
16442;SDS011;8331;51.654;14.376;2022-12-24T08:33:07;7.87;;;3.07;;
16442;SDS011;8331;51.654;14.376;2022-12-24T08:35:34;6.60;;;3.57;;
16442;SDS011;8331;51.654;14.376;2022-12-24T08:38:01;7.03;;;3.17;;
16442;SDS011;8331;51.654;14.376;2022-12-24T08:40:27;13.73;;;3.43;;
16442;SDS011;8331;51.654;14.376;2022-12-24T08:42:54;4.50;;;3.23;;
16442;SDS011;8331;51.654;14.376;2022-12-24T08:45:21;6.53;;;3.40;;
16442;SDS011;8331;51.654;14.376;2022-12-24T08:47:48;8.47;;;4.10;;
16442;SDS011;8331;51.654;14.376;2022-12-24T08:50:14;7.07;;;3.80;;
16442;SDS011;8331;51.654;14.376;2022-12-24T08:52:41;6.50;;;3.57;;
16442;SDS011;8331;51.654;14.376;2022-12-24T08:55:08;10.27;;;3.60;;
16442;SDS011;8331;51.654;14.376;2022-12-24T08:57:35;8.53;;;3.60;;
16442;SDS011;8331;51.654;14.376;2022-12-24T09:00:03;7.83;;;3.37;;
16442;SDS011;8331;51.654;14.376;2022-12-24T09:02:30;8.23;;;3.30;;
16442;SDS011;8331;51.654;14.376;2022-12-24T09:04:58;7.90;;;3.47;;
16442;SDS011;8331;51.654;14.376;2022-12-24T09:07:24;10.57;;;3.50;;
16442;SDS011;8331;51.654;14.376;2022-12-24T09:09:51;7.87;;;3.43;;
16442;SDS011;8331;51.654;14.376;2022-12-24T09:12:17;8.47;;;4.00;;
16442;SDS011;8331;51.654;14.376;2022-12-24T09:14:44;9.40;;;6.50;;
16442;SDS011;8331;51.654;14.376;2022-12-24T09:17:11;15.70;;;9.97;;
16442;SDS011;8331;51.654;14.376;2022-12-24T09:19:37;9.63;;;5.23;;
16442;SDS011;8331;51.654;14.376;2022-12-24T09:22:04;9.60;;;6.00;;
16442;SDS011;8331;51.654;14.376;2022-12-24T09:24:30;5.57;;;3.80;;
16442;SDS011;8331;51.654;14.376;2022-12-24T09:26:57;6.47;;;3.60;;
16442;SDS011;8331;51.654;14.376;2022-12-24T09:29:24;11.60;;;3.77;;
16442;SDS011;8331;51.654;14.376;2022-12-24T09:31:51;12.07;;;3.27;;
16442;SDS011;8331;51.654;14.376;2022-12-24T09:34:18;10.00;;;3.50;;
16442;SDS011;8331;51.654;14.376;2022-12-24T09:36:49;10.07;;;3.93;;
16442;SDS011;8331;51.654;14.376;2022-12-24T09:39:17;9.73;;;4.87;;
16442;SDS011;8331;51.654;14.376;2022-12-24T09:41:56;10.97;;;3.60;;
16442;SDS011;8331;51.654;14.376;2022-12-24T09:49:43;13.73;;;7.23;;
16442;SDS011;8331;51.654;14.376;2022-12-24T09:52:11;10.13;;;4.53;;
16442;SDS011;8331;51.654;14.376;2022-12-24T09:54:43;6.87;;;3.37;;
16442;SDS011;8331;51.654;14.376;2022-12-24T09:57:29;9.00;;;3.83;;
16442;SDS011;8331;51.654;14.376;2022-12-24T09:59:56;9.27;;;3.87;;
16442;SDS011;8331;51.654;14.376;2022-12-24T10:02:23;10.83;;;3.57;;
16442;SDS011;8331;51.654;14.376;2022-12-24T10:04:50;8.93;;;3.50;;
16442;SDS011;8331;51.654;14.376;2022-12-24T10:12:25;7.60;;;3.90;;
16442;SDS011;8331;51.654;14.376;2022-12-24T10:25:16;14.00;;;3.60;;
16442;SDS011;8331;51.654;14.376;2022-12-24T10:27:44;11.53;;;4.00;;
16442;SDS011;8331;51.654;14.376;2022-12-24T10:30:13;7.80;;;3.60;;
16442;SDS011;8331;51.654;14.376;2022-12-24T10:32:43;9.00;;;4.13;;
16442;SDS011;8331;51.654;14.376;2022-12-24T10:37:39;11.17;;;3.77;;
16442;SDS011;8331;51.654;14.376;2022-12-24T10:40:10;7.83;;;3.50;;
16442;SDS011;8331;51.654;14.376;2022-12-24T10:42:40;9.00;;;3.70;;
16442;SDS011;8331;51.654;14.376;2022-12-24T10:45:17;8.33;;;3.47;;
16442;SDS011;8331;51.654;14.376;2022-12-24T10:47:47;9.93;;;3.37;;
16442;SDS011;8331;51.654;14.376;2022-12-24T10:50:20;8.23;;;3.20;;
16442;SDS011;8331;51.654;14.376;2022-12-24T10:52:50;8.57;;;3.20;;
16442;SDS011;8331;51.654;14.376;2022-12-24T10:57:46;6.10;;;3.47;;
16442;SDS011;8331;51.654;14.376;2022-12-24T11:00:22;11.83;;;3.07;;
16442;SDS011;8331;51.654;14.376;2022-12-24T11:03:07;13.03;;;3.83;;
16442;SDS011;8331;51.654;14.376;2022-12-24T11:05:46;12.53;;;3.67;;
16442;SDS011;8331;51.654;14.376;2022-12-24T11:08:24;11.93;;;3.23;;
16442;SDS011;8331;51.654;14.376;2022-12-24T11:13:24;11.83;;;3.50;;
16442;SDS011;8331;51.654;14.376;2022-12-24T11:16:07;10.87;;;3.43;;
16442;SDS011;8331;51.654;14.376;2022-12-24T11:18:37;12.03;;;3.93;;
16442;SDS011;8331;51.654;14.376;2022-12-24T11:21:04;6.80;;;3.30;;
16442;SDS011;8331;51.654;14.376;2022-12-24T11:23:31;6.73;;;2.80;;
16442;SDS011;8331;51.654;14.376;2022-12-24T11:25:57;13.57;;;3.37;;
16442;SDS011;8331;51.654;14.376;2022-12-24T11:28:30;14.90;;;3.40;;
16442;SDS011;8331;51.654;14.376;2022-12-24T11:33:28;7.10;;;3.30;;
16442;SDS011;8331;51.654;14.376;2022-12-24T11:35:56;7.57;;;3.27;;
16442;SDS011;8331;51.654;14.376;2022-12-24T11:38:24;8.33;;;3.43;;
16442;SDS011;8331;51.654;14.376;2022-12-24T11:41:24;10.70;;;3.47;;
16442;SDS011;8331;51.654;14.376;2022-12-24T11:43:45;6.87;;;2.87;;
16442;SDS011;8331;51.654;14.376;2022-12-24T11:48:39;8.60;;;2.97;;
16442;SDS011;8331;51.654;14.376;2022-12-24T11:51:06;10.23;;;3.60;;
16442;SDS011;8331;51.654;14.376;2022-12-24T11:53:45;8.77;;;3.17;;
16442;SDS011;8331;51.654;14.376;2022-12-24T11:56:24;13.70;;;3.87;;
16442;SDS011;8331;51.654;14.376;2022-12-24T11:58:53;7.67;;;3.10;;
16442;SDS011;8331;51.654;14.376;2022-12-24T12:01:24;57.87;;;17.63;;
16442;SDS011;8331;51.654;14.376;2022-12-24T12:03:55;15.63;;;6.97;;
16442;SDS011;8331;51.654;14.376;2022-12-24T12:08:55;23.70;;;6.33;;
16442;SDS011;8331;51.654;14.376;2022-12-24T12:11:22;68.63;;;20.87;;
16442;SDS011;8331;51.654;14.376;2022-12-24T12:13:51;36.30;;;13.87;;
16442;SDS011;8331;51.654;14.376;2022-12-24T12:18:56;18.37;;;6.00;;
16442;SDS011;8331;51.654;14.376;2022-12-24T12:21:43;12.77;;;4.00;;
16442;SDS011;8331;51.654;14.376;2022-12-24T12:24:13;9.00;;;4.00;;
16442;SDS011;8331;51.654;14.376;2022-12-24T12:26:42;10.77;;;3.37;;
16442;SDS011;8331;51.654;14.376;2022-12-24T12:29:14;10.90;;;4.33;;
16442;SDS011;8331;51.654;14.376;2022-12-24T12:31:46;13.17;;;4.13;;
16442;SDS011;8331;51.654;14.376;2022-12-24T12:34:21;11.57;;;4.40;;
16442;SDS011;8331;51.654;14.376;2022-12-24T12:36:55;7.37;;;3.97;;
16442;SDS011;8331;51.654;14.376;2022-12-24T12:39:23;10.57;;;3.73;;
16442;SDS011;8331;51.654;14.376;2022-12-24T12:49:27;9.80;;;3.70;;
16442;SDS011;8331;51.654;14.376;2022-12-24T12:57:10;8.63;;;3.83;;
16442;SDS011;8331;51.654;14.376;2022-12-24T13:02:16;9.73;;;3.73;;
16442;SDS011;8331;51.654;14.376;2022-12-24T13:16:03;7.50;;;3.37;;
16442;SDS011;8331;51.654;14.376;2022-12-24T13:18:21;10.60;;;4.00;;
16442;SDS011;8331;51.654;14.376;2022-12-24T13:20:48;7.83;;;3.83;;
16442;SDS011;8331;51.654;14.376;2022-12-24T13:23:22;5.87;;;3.13;;
16442;SDS011;8331;51.654;14.376;2022-12-24T13:25:50;9.57;;;3.50;;
16442;SDS011;8331;51.654;14.376;2022-12-24T13:31:22;12.00;;;5.50;;
16442;SDS011;8331;51.654;14.376;2022-12-24T13:38:48;10.77;;;3.70;;
16442;SDS011;8331;51.654;14.376;2022-12-24T13:49:18;8.97;;;2.90;;
16442;SDS011;8331;51.654;14.376;2022-12-24T13:51:45;7.37;;;3.10;;
16442;SDS011;8331;51.654;14.376;2022-12-24T13:54:12;8.70;;;3.53;;
16442;SDS011;8331;51.654;14.376;2022-12-24T13:56:40;7.17;;;2.80;;
16442;SDS011;8331;51.654;14.376;2022-12-24T14:01:43;7.47;;;3.23;;
16442;SDS011;8331;51.654;14.376;2022-12-24T14:04:19;8.23;;;2.97;;
16442;SDS011;8331;51.654;14.376;2022-12-24T14:06:48;9.17;;;3.10;;
16442;SDS011;8331;51.654;14.376;2022-12-24T14:09:17;6.73;;;3.00;;
16442;SDS011;8331;51.654;14.376;2022-12-24T14:14:29;9.60;;;3.40;;
16442;SDS011;8331;51.654;14.376;2022-12-24T14:16:57;7.77;;;2.80;;
16442;SDS011;8331;51.654;14.376;2022-12-24T14:19:24;8.37;;;2.87;;
16442;SDS011;8331;51.654;14.376;2022-12-24T14:22:01;5.80;;;2.40;;
16442;SDS011;8331;51.654;14.376;2022-12-24T14:24:35;5.53;;;2.53;;
16442;SDS011;8331;51.654;14.376;2022-12-24T14:27:07;8.10;;;2.73;;
16442;SDS011;8331;51.654;14.376;2022-12-24T14:32:35;4.90;;;2.67;;
16442;SDS011;8331;51.654;14.376;2022-12-24T14:35:07;4.57;;;2.10;;
16442;SDS011;8331;51.654;14.376;2022-12-24T14:37:33;6.27;;;2.90;;
16442;SDS011;8331;51.654;14.376;2022-12-24T14:40:00;5.67;;;2.67;;
16442;SDS011;8331;51.654;14.376;2022-12-24T14:48:02;7.63;;;2.90;;
16442;SDS011;8331;51.654;14.376;2022-12-24T14:55:37;5.90;;;2.20;;
16442;SDS011;8331;51.654;14.376;2022-12-24T14:58:24;6.93;;;2.70;;
16442;SDS011;8331;51.654;14.376;2022-12-24T15:00:52;4.57;;;2.20;;
16442;SDS011;8331;51.654;14.376;2022-12-24T15:03:20;6.33;;;2.67;;
16442;SDS011;8331;51.654;14.376;2022-12-24T15:05:51;6.67;;;3.60;;
16442;SDS011;8331;51.654;14.376;2022-12-24T15:08:25;7.47;;;3.70;;
16442;SDS011;8331;51.654;14.376;2022-12-24T15:10:52;5.53;;;3.10;;
16442;SDS011;8331;51.654;14.376;2022-12-24T15:15:46;5.13;;;2.50;;
16442;SDS011;8331;51.654;14.376;2022-12-24T15:18:23;5.80;;;2.30;;
16442;SDS011;8331;51.654;14.376;2022-12-24T15:20:51;4.67;;;2.23;;
16442;SDS011;8331;51.654;14.376;2022-12-24T15:23:29;5.20;;;2.70;;
16442;SDS011;8331;51.654;14.376;2022-12-24T15:28:38;5.33;;;2.40;;
16442;SDS011;8331;51.654;14.376;2022-12-24T15:31:12;4.30;;;2.10;;
16442;SDS011;8331;51.654;14.376;2022-12-24T15:33:42;7.83;;;2.90;;
16442;SDS011;8331;51.654;14.376;2022-12-24T15:36:09;6.17;;;2.20;;
16442;SDS011;8331;51.654;14.376;2022-12-24T15:38:39;4.27;;;2.10;;
16442;SDS011;8331;51.654;14.376;2022-12-24T15:41:14;4.33;;;2.63;;
16442;SDS011;8331;51.654;14.376;2022-12-24T15:43:42;5.63;;;2.37;;
16442;SDS011;8331;51.654;14.376;2022-12-24T15:46:09;5.17;;;2.43;;
16442;SDS011;8331;51.654;14.376;2022-12-24T15:48:43;4.40;;;2.23;;
16442;SDS011;8331;51.654;14.376;2022-12-24T15:51:10;4.77;;;2.07;;
16442;SDS011;8331;51.654;14.376;2022-12-24T15:53:41;5.23;;;1.97;;
16442;SDS011;8331;51.654;14.376;2022-12-24T15:58:39;5.63;;;2.30;;
16442;SDS011;8331;51.654;14.376;2022-12-24T16:03:40;2.33;;;1.70;;
16442;SDS011;8331;51.654;14.376;2022-12-24T16:06:07;6.40;;;2.13;;
16442;SDS011;8331;51.654;14.376;2022-12-24T16:08:34;2.53;;;1.90;;
16442;SDS011;8331;51.654;14.376;2022-12-24T16:13:32;3.30;;;1.80;;
16442;SDS011;8331;51.654;14.376;2022-12-24T16:16:02;4.83;;;2.13;;
16442;SDS011;8331;51.654;14.376;2022-12-24T16:18:36;6.63;;;2.00;;
16442;SDS011;8331;51.654;14.376;2022-12-24T16:21:04;4.03;;;1.93;;
16442;SDS011;8331;51.654;14.376;2022-12-24T16:23:53;3.93;;;2.10;;
16442;SDS011;8331;51.654;14.376;2022-12-24T16:26:20;3.97;;;2.00;;
16442;SDS011;8331;51.654;14.376;2022-12-24T16:28:47;4.40;;;2.33;;
16442;SDS011;8331;51.654;14.376;2022-12-24T16:31:18;3.37;;;1.60;;
16442;SDS011;8331;51.654;14.376;2022-12-24T16:33:45;3.47;;;1.73;;
16442;SDS011;8331;51.654;14.376;2022-12-24T16:36:12;2.73;;;1.60;;
16442;SDS011;8331;51.654;14.376;2022-12-24T16:38:39;2.57;;;1.80;;
16442;SDS011;8331;51.654;14.376;2022-12-24T16:41:24;2.63;;;1.70;;
16442;SDS011;8331;51.654;14.376;2022-12-24T16:43:50;2.93;;;1.80;;
16442;SDS011;8331;51.654;14.376;2022-12-24T16:46:17;3.13;;;1.77;;
16442;SDS011;8331;51.654;14.376;2022-12-24T16:48:45;3.83;;;1.70;;
16442;SDS011;8331;51.654;14.376;2022-12-24T16:51:12;2.87;;;2.03;;
16442;SDS011;8331;51.654;14.376;2022-12-24T16:53:38;5.00;;;1.90;;
16442;SDS011;8331;51.654;14.376;2022-12-24T16:56:06;4.00;;;1.87;;
16442;SDS011;8331;51.654;14.376;2022-12-24T16:58:33;8.67;;;2.00;;
16442;SDS011;8331;51.654;14.376;2022-12-24T17:01:04;6.53;;;2.10;;
16442;SDS011;8331;51.654;14.376;2022-12-24T17:03:31;4.70;;;1.83;;
16442;SDS011;8331;51.654;14.376;2022-12-24T17:05:58;4.87;;;1.70;;
16442;SDS011;8331;51.654;14.376;2022-12-24T17:08:29;4.70;;;1.60;;
16442;SDS011;8331;51.654;14.376;2022-12-24T17:10:55;4.37;;;2.13;;
16442;SDS011;8331;51.654;14.376;2022-12-24T17:13:22;4.30;;;1.60;;
16442;SDS011;8331;51.654;14.376;2022-12-24T17:15:49;2.63;;;1.70;;